sensor_id;sensor_type;location;lat;lon;timestamp;temperature;humidity
33328;DHT22;19692;52.998;9.116;2023-03-23T00:01:09;10.00;99.90
33328;DHT22;19692;52.998;9.116;2023-03-23T00:03:36;10.00;99.90
33328;DHT22;19692;52.998;9.116;2023-03-23T00:06:03;10.00;99.90
33328;DHT22;19692;52.998;9.116;2023-03-23T00:08:31;10.00;99.90
33328;DHT22;19692;52.998;9.116;2023-03-23T00:11:03;10.00;99.90
33328;DHT22;19692;52.998;9.116;2023-03-23T00:13:30;10.00;99.90
33328;DHT22;19692;52.998;9.116;2023-03-23T00:15:56;10.00;99.90
33328;DHT22;19692;52.998;9.116;2023-03-23T00:18:23;10.00;99.90
33328;DHT22;19692;52.998;9.116;2023-03-23T00:20:56;10.00;99.90
33328;DHT22;19692;52.998;9.116;2023-03-23T00:23:24;10.00;99.90
33328;DHT22;19692;52.998;9.116;2023-03-23T00:25:53;10.00;99.90
33328;DHT22;19692;52.998;9.116;2023-03-23T00:28:24;10.00;99.90
33328;DHT22;19692;52.998;9.116;2023-03-23T00:31:03;9.90;99.90
33328;DHT22;19692;52.998;9.116;2023-03-23T00:33:32;9.90;99.90
33328;DHT22;19692;52.998;9.116;2023-03-23T00:36:04;9.90;99.90
33328;DHT22;19692;52.998;9.116;2023-03-23T00:38:31;9.90;99.90
33328;DHT22;19692;52.998;9.116;2023-03-23T00:40:57;9.90;99.90
33328;DHT22;19692;52.998;9.116;2023-03-23T00:43:28;9.90;99.90
33328;DHT22;19692;52.998;9.116;2023-03-23T00:45:55;9.90;99.90
33328;DHT22;19692;52.998;9.116;2023-03-23T00:48:23;10.00;99.90
33328;DHT22;19692;52.998;9.116;2023-03-23T00:50:50;10.00;99.90
33328;DHT22;19692;52.998;9.116;2023-03-23T00:53:18;10.00;99.90
33328;DHT22;19692;52.998;9.116;2023-03-23T00:55:45;10.00;99.90
33328;DHT22;19692;52.998;9.116;2023-03-23T00:58:13;10.00;99.90
33328;DHT22;19692;52.998;9.116;2023-03-23T01:00:41;10.00;99.90
33328;DHT22;19692;52.998;9.116;2023-03-23T01:03:08;10.10;99.90
33328;DHT22;19692;52.998;9.116;2023-03-23T01:05:39;10.10;99.90
33328;DHT22;19692;52.998;9.116;2023-03-23T01:08:06;10.10;99.90
33328;DHT22;19692;52.998;9.116;2023-03-23T01:10:32;10.10;99.90
33328;DHT22;19692;52.998;9.116;2023-03-23T01:13:00;10.20;99.90
33328;DHT22;19692;52.998;9.116;2023-03-23T01:15:27;10.10;99.90
33328;DHT22;19692;52.998;9.116;2023-03-23T01:17:53;10.10;99.90
33328;DHT22;19692;52.998;9.116;2023-03-23T01:20:19;10.10;99.90
33328;DHT22;19692;52.998;9.116;2023-03-23T01:22:45;10.10;99.90
33328;DHT22;19692;52.998;9.116;2023-03-23T01:25:12;10.10;99.90
33328;DHT22;19692;52.998;9.116;2023-03-23T01:27:39;10.20;99.90
33328;DHT22;19692;52.998;9.116;2023-03-23T01:30:08;10.20;99.90
33328;DHT22;19692;52.998;9.116;2023-03-23T01:32:37;10.20;99.90
33328;DHT22;19692;52.998;9.116;2023-03-23T01:35:03;10.20;99.90
33328;DHT22;19692;52.998;9.116;2023-03-23T01:37:30;10.20;99.90
33328;DHT22;19692;52.998;9.116;2023-03-23T01:39:56;10.20;99.90
33328;DHT22;19692;52.998;9.116;2023-03-23T01:42:30;10.20;99.90
33328;DHT22;19692;52.998;9.116;2023-03-23T01:45:29;10.30;99.90
33328;DHT22;19692;52.998;9.116;2023-03-23T01:48:00;10.20;99.90
33328;DHT22;19692;52.998;9.116;2023-03-23T01:50:31;10.30;99.90
33328;DHT22;19692;52.998;9.116;2023-03-23T01:53:04;10.30;99.90
33328;DHT22;19692;52.998;9.116;2023-03-23T01:55:34;10.30;99.90
33328;DHT22;19692;52.998;9.116;2023-03-23T01:58:02;10.20;99.90
33328;DHT22;19692;52.998;9.116;2023-03-23T02:00:28;10.20;99.90
33328;DHT22;19692;52.998;9.116;2023-03-23T02:02:56;10.20;99.90
33328;DHT22;19692;52.998;9.116;2023-03-23T02:05:34;10.20;99.90
33328;DHT22;19692;52.998;9.116;2023-03-23T02:08:04;10.20;99.90
33328;DHT22;19692;52.998;9.116;2023-03-23T02:10:32;10.30;99.90
33328;DHT22;19692;52.998;9.116;2023-03-23T02:12:59;10.30;99.90
33328;DHT22;19692;52.998;9.116;2023-03-23T02:15:29;10.30;99.90
33328;DHT22;19692;52.998;9.116;2023-03-23T02:19:24;10.30;99.90
33328;DHT22;19692;52.998;9.116;2023-03-23T02:21:46;10.30;99.90
33328;DHT22;19692;52.998;9.116;2023-03-23T02:38:25;10.20;99.90
33328;DHT22;19692;52.998;9.116;2023-03-23T02:40:56;10.30;99.90
33328;DHT22;19692;52.998;9.116;2023-03-23T02:43:27;10.30;99.90
33328;DHT22;19692;52.998;9.116;2023-03-23T02:46:00;10.30;99.90
33328;DHT22;19692;52.998;9.116;2023-03-23T02:48:29;10.30;99.90
33328;DHT22;19692;52.998;9.116;2023-03-23T02:50:55;10.30;99.90
33328;DHT22;19692;52.998;9.116;2023-03-23T02:53:24;10.30;99.90
33328;DHT22;19692;52.998;9.116;2023-03-23T02:55:53;10.30;99.90
33328;DHT22;19692;52.998;9.116;2023-03-23T02:58:20;10.30;99.90
33328;DHT22;19692;52.998;9.116;2023-03-23T03:00:49;10.30;99.90
33328;DHT22;19692;52.998;9.116;2023-03-23T03:03:19;10.30;99.90
33328;DHT22;19692;52.998;9.116;2023-03-23T03:05:59;10.20;99.90
33328;DHT22;19692;52.998;9.116;2023-03-23T03:08:48;10.30;99.90
33328;DHT22;19692;52.998;9.116;2023-03-23T03:11:19;10.30;99.90
33328;DHT22;19692;52.998;9.116;2023-03-23T03:16:44;10.30;99.90
33328;DHT22;19692;52.998;9.116;2023-03-23T03:19:26;10.20;99.90
33328;DHT22;19692;52.998;9.116;2023-03-23T03:21:56;10.20;99.90
33328;DHT22;19692;52.998;9.116;2023-03-23T03:24:26;10.20;99.90
33328;DHT22;19692;52.998;9.116;2023-03-23T03:26:56;10.20;99.90
33328;DHT22;19692;52.998;9.116;2023-03-23T03:29:29;10.20;99.90
33328;DHT22;19692;52.998;9.116;2023-03-23T03:31:56;10.20;99.90
33328;DHT22;19692;52.998;9.116;2023-03-23T03:34:24;10.20;99.90
33328;DHT22;19692;52.998;9.116;2023-03-23T03:36:52;10.30;99.90
33328;DHT22;19692;52.998;9.116;2023-03-23T03:39:20;10.20;99.90
33328;DHT22;19692;52.998;9.116;2023-03-23T03:41:47;10.20;99.90
33328;DHT22;19692;52.998;9.116;2023-03-23T03:44:13;10.20;99.90
33328;DHT22;19692;52.998;9.116;2023-03-23T03:46:39;10.30;99.90
33328;DHT22;19692;52.998;9.116;2023-03-23T03:49:07;10.20;99.90
33328;DHT22;19692;52.998;9.116;2023-03-23T03:51:34;10.20;99.90
33328;DHT22;19692;52.998;9.116;2023-03-23T03:54:01;10.30;99.90
33328;DHT22;19692;52.998;9.116;2023-03-23T03:56:27;10.20;99.90
33328;DHT22;19692;52.998;9.116;2023-03-23T03:58:53;10.20;99.90
33328;DHT22;19692;52.998;9.116;2023-03-23T04:01:21;10.30;99.90
33328;DHT22;19692;52.998;9.116;2023-03-23T04:03:48;10.30;99.90
33328;DHT22;19692;52.998;9.116;2023-03-23T04:06:14;10.30;99.90
33328;DHT22;19692;52.998;9.116;2023-03-23T04:08:41;10.30;99.90
33328;DHT22;19692;52.998;9.116;2023-03-23T04:11:12;10.40;99.90
33328;DHT22;19692;52.998;9.116;2023-03-23T04:13:39;10.40;99.90
33328;DHT22;19692;52.998;9.116;2023-03-23T04:16:06;10.40;99.90
33328;DHT22;19692;52.998;9.116;2023-03-23T04:18:33;10.50;99.90
33328;DHT22;19692;52.998;9.116;2023-03-23T04:21:00;10.50;99.90
33328;DHT22;19692;52.998;9.116;2023-03-23T04:23:27;10.40;99.90
33328;DHT22;19692;52.998;9.116;2023-03-23T04:25:55;10.40;99.90
33328;DHT22;19692;52.998;9.116;2023-03-23T04:28:23;10.40;99.90
33328;DHT22;19692;52.998;9.116;2023-03-23T04:30:53;10.50;99.90
33328;DHT22;19692;52.998;9.116;2023-03-23T04:33:24;10.50;99.90
33328;DHT22;19692;52.998;9.116;2023-03-23T04:35:56;10.50;99.90
33328;DHT22;19692;52.998;9.116;2023-03-23T04:38:27;10.50;99.90
33328;DHT22;19692;52.998;9.116;2023-03-23T04:40:53;10.50;99.90
33328;DHT22;19692;52.998;9.116;2023-03-23T04:43:20;10.60;99.90
33328;DHT22;19692;52.998;9.116;2023-03-23T04:45:52;10.60;99.90
33328;DHT22;19692;52.998;9.116;2023-03-23T04:48:23;10.60;99.90
33328;DHT22;19692;52.998;9.116;2023-03-23T04:50:49;10.60;99.90
33328;DHT22;19692;52.998;9.116;2023-03-23T04:53:16;10.60;99.90
33328;DHT22;19692;52.998;9.116;2023-03-23T04:55:43;10.60;99.90
33328;DHT22;19692;52.998;9.116;2023-03-23T04:58:09;10.60;99.90
33328;DHT22;19692;52.998;9.116;2023-03-23T05:00:38;10.70;99.90
33328;DHT22;19692;52.998;9.116;2023-03-23T05:03:04;10.60;99.90
33328;DHT22;19692;52.998;9.116;2023-03-23T05:05:31;10.70;99.90
33328;DHT22;19692;52.998;9.116;2023-03-23T05:07:57;10.70;99.90
33328;DHT22;19692;52.998;9.116;2023-03-23T05:10:23;10.70;99.90
33328;DHT22;19692;52.998;9.116;2023-03-23T05:12:49;10.70;99.90
33328;DHT22;19692;52.998;9.116;2023-03-23T05:15:16;10.70;99.90
33328;DHT22;19692;52.998;9.116;2023-03-23T05:17:42;10.80;99.90
33328;DHT22;19692;52.998;9.116;2023-03-23T05:20:13;10.80;99.90
33328;DHT22;19692;52.998;9.116;2023-03-23T05:22:41;10.80;99.90
33328;DHT22;19692;52.998;9.116;2023-03-23T05:25:08;10.70;99.90
33328;DHT22;19692;52.998;9.116;2023-03-23T05:27:35;10.70;99.90
33328;DHT22;19692;52.998;9.116;2023-03-23T05:30:02;10.80;99.90
33328;DHT22;19692;52.998;9.116;2023-03-23T05:32:29;10.80;99.90
33328;DHT22;19692;52.998;9.116;2023-03-23T05:34:56;10.80;99.90
33328;DHT22;19692;52.998;9.116;2023-03-23T05:37:24;10.80;99.90
33328;DHT22;19692;52.998;9.116;2023-03-23T05:39:50;10.90;99.90
33328;DHT22;19692;52.998;9.116;2023-03-23T05:42:24;10.90;99.90
33328;DHT22;19692;52.998;9.116;2023-03-23T05:44:50;11.00;99.90
33328;DHT22;19692;52.998;9.116;2023-03-23T05:47:16;11.00;99.90
33328;DHT22;19692;52.998;9.116;2023-03-23T05:49:42;11.00;99.90
33328;DHT22;19692;52.998;9.116;2023-03-23T05:52:08;11.00;99.90
33328;DHT22;19692;52.998;9.116;2023-03-23T05:54:34;11.00;99.90
33328;DHT22;19692;52.998;9.116;2023-03-23T05:57:00;11.00;99.90
33328;DHT22;19692;52.998;9.116;2023-03-23T05:59:26;11.00;99.90
33328;DHT22;19692;52.998;9.116;2023-03-23T06:01:52;11.00;99.90
33328;DHT22;19692;52.998;9.116;2023-03-23T06:04:20;11.00;99.90
33328;DHT22;19692;52.998;9.116;2023-03-23T06:06:50;10.90;99.90
33328;DHT22;19692;52.998;9.116;2023-03-23T06:09:19;11.00;99.90
33328;DHT22;19692;52.998;9.116;2023-03-23T06:11:45;11.00;99.90
33328;DHT22;19692;52.998;9.116;2023-03-23T06:14:12;11.00;99.90
33328;DHT22;19692;52.998;9.116;2023-03-23T06:16:38;11.00;99.90
33328;DHT22;19692;52.998;9.116;2023-03-23T06:19:04;11.00;99.90
33328;DHT22;19692;52.998;9.116;2023-03-23T06:21:30;11.10;99.90
33328;DHT22;19692;52.998;9.116;2023-03-23T06:23:57;11.10;99.90
33328;DHT22;19692;52.998;9.116;2023-03-23T06:26:28;11.10;99.90
33328;DHT22;19692;52.998;9.116;2023-03-23T06:28:58;11.10;99.90
33328;DHT22;19692;52.998;9.116;2023-03-23T06:31:26;11.20;99.90
33328;DHT22;19692;52.998;9.116;2023-03-23T06:33:52;11.20;99.90
33328;DHT22;19692;52.998;9.116;2023-03-23T06:36:19;11.20;99.90
33328;DHT22;19692;52.998;9.116;2023-03-23T06:38:45;11.20;99.90
33328;DHT22;19692;52.998;9.116;2023-03-23T06:41:11;11.20;99.90
33328;DHT22;19692;52.998;9.116;2023-03-23T06:43:37;11.20;99.90
33328;DHT22;19692;52.998;9.116;2023-03-23T06:46:05;11.20;99.90
33328;DHT22;19692;52.998;9.116;2023-03-23T06:48:31;11.20;99.90
33328;DHT22;19692;52.998;9.116;2023-03-23T06:50:57;11.10;99.90
33328;DHT22;19692;52.998;9.116;2023-03-23T06:53:23;11.10;99.90
33328;DHT22;19692;52.998;9.116;2023-03-23T06:55:49;11.10;99.90
33328;DHT22;19692;52.998;9.116;2023-03-23T06:58:15;11.10;99.90
33328;DHT22;19692;52.998;9.116;2023-03-23T07:00:41;11.10;99.90
33328;DHT22;19692;52.998;9.116;2023-03-23T07:03:08;11.20;99.90
33328;DHT22;19692;52.998;9.116;2023-03-23T07:05:34;11.20;99.90
33328;DHT22;19692;52.998;9.116;2023-03-23T07:08:02;11.20;99.90
33328;DHT22;19692;52.998;9.116;2023-03-23T07:10:28;11.20;99.90
33328;DHT22;19692;52.998;9.116;2023-03-23T07:12:54;11.20;99.90
33328;DHT22;19692;52.998;9.116;2023-03-23T07:15:20;11.20;99.90
33328;DHT22;19692;52.998;9.116;2023-03-23T07:17:47;11.10;99.90
33328;DHT22;19692;52.998;9.116;2023-03-23T07:20:13;11.10;99.90
33328;DHT22;19692;52.998;9.116;2023-03-23T07:22:40;11.20;99.90
33328;DHT22;19692;52.998;9.116;2023-03-23T07:25:06;11.20;99.90
33328;DHT22;19692;52.998;9.116;2023-03-23T07:27:33;11.30;99.90
33328;DHT22;19692;52.998;9.116;2023-03-23T07:29:59;11.40;99.90
33328;DHT22;19692;52.998;9.116;2023-03-23T07:32:25;11.60;99.90
33328;DHT22;19692;52.998;9.116;2023-03-23T07:34:51;11.70;99.90
33328;DHT22;19692;52.998;9.116;2023-03-23T07:37:17;11.90;99.90
33328;DHT22;19692;52.998;9.116;2023-03-23T07:39:43;12.00;99.90
33328;DHT22;19692;52.998;9.116;2023-03-23T07:42:09;12.10;99.90
33328;DHT22;19692;52.998;9.116;2023-03-23T07:44:35;12.10;99.90
33328;DHT22;19692;52.998;9.116;2023-03-23T07:47:01;12.20;99.90
33328;DHT22;19692;52.998;9.116;2023-03-23T07:49:27;12.20;99.90
33328;DHT22;19692;52.998;9.116;2023-03-23T07:51:56;12.10;99.90
33328;DHT22;19692;52.998;9.116;2023-03-23T07:54:23;12.00;99.90
33328;DHT22;19692;52.998;9.116;2023-03-23T07:56:49;11.90;99.90
33328;DHT22;19692;52.998;9.116;2023-03-23T07:59:15;11.70;99.90
33328;DHT22;19692;52.998;9.116;2023-03-23T08:01:41;11.50;99.90
33328;DHT22;19692;52.998;9.116;2023-03-23T08:04:07;11.40;99.90
33328;DHT22;19692;52.998;9.116;2023-03-23T08:06:34;11.10;99.90
33328;DHT22;19692;52.998;9.116;2023-03-23T08:09:00;11.00;99.90
33328;DHT22;19692;52.998;9.116;2023-03-23T08:11:27;10.80;99.90
33328;DHT22;19692;52.998;9.116;2023-03-23T08:13:52;10.80;99.90
33328;DHT22;19692;52.998;9.116;2023-03-23T08:16:18;10.70;99.90
33328;DHT22;19692;52.998;9.116;2023-03-23T08:18:45;10.60;99.90
33328;DHT22;19692;52.998;9.116;2023-03-23T08:21:12;10.50;99.90
33328;DHT22;19692;52.998;9.116;2023-03-23T08:23:38;10.40;99.90
33328;DHT22;19692;52.998;9.116;2023-03-23T08:26:06;10.40;99.90
33328;DHT22;19692;52.998;9.116;2023-03-23T08:28:34;10.40;99.90
33328;DHT22;19692;52.998;9.116;2023-03-23T08:31:09;10.30;99.90
33328;DHT22;19692;52.998;9.116;2023-03-23T08:33:36;10.20;99.90
33328;DHT22;19692;52.998;9.116;2023-03-23T08:36:03;10.20;99.90
33328;DHT22;19692;52.998;9.116;2023-03-23T08:38:30;10.20;99.90
33328;DHT22;19692;52.998;9.116;2023-03-23T08:41:01;10.20;99.90
33328;DHT22;19692;52.998;9.116;2023-03-23T08:43:30;10.10;99.90
33328;DHT22;19692;52.998;9.116;2023-03-23T08:45:58;10.00;99.90
33328;DHT22;19692;52.998;9.116;2023-03-23T08:48:24;10.00;99.90
33328;DHT22;19692;52.998;9.116;2023-03-23T08:50:50;10.10;99.90
33328;DHT22;19692;52.998;9.116;2023-03-23T08:53:18;10.10;99.90
33328;DHT22;19692;52.998;9.116;2023-03-23T08:55:50;10.10;99.90
33328;DHT22;19692;52.998;9.116;2023-03-23T08:58:15;10.10;99.90
33328;DHT22;19692;52.998;9.116;2023-03-23T09:00:41;10.10;99.90
33328;DHT22;19692;52.998;9.116;2023-03-23T09:03:07;10.20;99.90
33328;DHT22;19692;52.998;9.116;2023-03-23T09:05:32;10.20;99.90
33328;DHT22;19692;52.998;9.116;2023-03-23T09:07:58;10.30;99.90
33328;DHT22;19692;52.998;9.116;2023-03-23T09:10:26;10.30;99.90
33328;DHT22;19692;52.998;9.116;2023-03-23T09:12:54;10.30;99.90
33328;DHT22;19692;52.998;9.116;2023-03-23T09:15:20;10.30;99.90
33328;DHT22;19692;52.998;9.116;2023-03-23T09:17:49;10.40;99.90
33328;DHT22;19692;52.998;9.116;2023-03-23T09:20:20;10.40;99.90
33328;DHT22;19692;52.998;9.116;2023-03-23T09:22:50;10.40;99.90
33328;DHT22;19692;52.998;9.116;2023-03-23T09:25:19;10.50;99.90
33328;DHT22;19692;52.998;9.116;2023-03-23T09:27:49;10.60;99.90
33328;DHT22;19692;52.998;9.116;2023-03-23T09:30:23;10.60;99.90
33328;DHT22;19692;52.998;9.116;2023-03-23T09:32:51;10.70;99.90
33328;DHT22;19692;52.998;9.116;2023-03-23T09:35:16;10.70;99.90
33328;DHT22;19692;52.998;9.116;2023-03-23T09:37:44;10.70;99.90
33328;DHT22;19692;52.998;9.116;2023-03-23T09:40:15;10.70;99.90
33328;DHT22;19692;52.998;9.116;2023-03-23T09:46:19;10.50;99.90
33328;DHT22;19692;52.998;9.116;2023-03-23T09:49:03;10.40;99.90
33328;DHT22;19692;52.998;9.116;2023-03-23T09:51:41;10.30;99.90
33328;DHT22;19692;52.998;9.116;2023-03-23T09:54:17;10.20;99.90
33328;DHT22;19692;52.998;9.116;2023-03-23T09:56:49;10.20;99.90
33328;DHT22;19692;52.998;9.116;2023-03-23T09:59:24;10.20;99.90
33328;DHT22;19692;52.998;9.116;2023-03-23T10:02:19;10.20;99.90
33328;DHT22;19692;52.998;9.116;2023-03-23T10:04:51;10.20;99.90
33328;DHT22;19692;52.998;9.116;2023-03-23T10:07:23;10.20;99.90
33328;DHT22;19692;52.998;9.116;2023-03-23T10:09:59;10.20;99.90
33328;DHT22;19692;52.998;9.116;2023-03-23T10:15:12;10.20;99.90
33328;DHT22;19692;52.998;9.116;2023-03-23T10:20:53;10.30;99.90
33328;DHT22;19692;52.998;9.116;2023-03-23T10:26:37;10.30;99.90
33328;DHT22;19692;52.998;9.116;2023-03-23T10:29:19;10.30;99.90
33328;DHT22;19692;52.998;9.116;2023-03-23T10:31:52;10.30;99.90
33328;DHT22;19692;52.998;9.116;2023-03-23T10:34:44;10.40;99.90
33328;DHT22;19692;52.998;9.116;2023-03-23T10:37:17;10.40;99.90
33328;DHT22;19692;52.998;9.116;2023-03-23T10:39:54;10.40;99.90
33328;DHT22;19692;52.998;9.116;2023-03-23T10:42:31;10.50;99.90
33328;DHT22;19692;52.998;9.116;2023-03-23T10:45:09;10.60;99.90
33328;DHT22;19692;52.998;9.116;2023-03-23T10:47:40;10.60;99.90
33328;DHT22;19692;52.998;9.116;2023-03-23T10:50:28;10.60;99.90
33328;DHT22;19692;52.998;9.116;2023-03-23T10:52:57;10.60;99.90
33328;DHT22;19692;52.998;9.116;2023-03-23T10:55:34;10.70;99.90
33328;DHT22;19692;52.998;9.116;2023-03-23T11:00:42;10.70;99.90
33328;DHT22;19692;52.998;9.116;2023-03-23T11:05:45;10.90;99.90
33328;DHT22;19692;52.998;9.116;2023-03-23T11:08:25;10.90;99.90
33328;DHT22;19692;52.998;9.116;2023-03-23T11:10:57;11.00;99.90
33328;DHT22;19692;52.998;9.116;2023-03-23T11:13:32;11.20;99.90
33328;DHT22;19692;52.998;9.116;2023-03-23T11:15:58;11.30;99.90
33328;DHT22;19692;52.998;9.116;2023-03-23T11:18:41;11.40;99.90
33328;DHT22;19692;52.998;9.116;2023-03-23T11:21:12;11.60;99.90
33328;DHT22;19692;52.998;9.116;2023-03-23T11:23:41;11.70;99.90
33328;DHT22;19692;52.998;9.116;2023-03-23T11:29:04;11.70;99.90
33328;DHT22;19692;52.998;9.116;2023-03-23T11:31:40;11.70;99.90
33328;DHT22;19692;52.998;9.116;2023-03-23T11:34:25;11.50;99.90
33328;DHT22;19692;52.998;9.116;2023-03-23T11:37:05;11.50;99.90
33328;DHT22;19692;52.998;9.116;2023-03-23T11:39:45;11.50;99.90
33328;DHT22;19692;52.998;9.116;2023-03-23T11:45:31;11.50;99.90
33328;DHT22;19692;52.998;9.116;2023-03-23T11:51:11;11.60;99.90
33328;DHT22;19692;52.998;9.116;2023-03-23T11:53:57;11.60;99.90
33328;DHT22;19692;52.998;9.116;2023-03-23T11:56:36;11.70;99.90
33328;DHT22;19692;52.998;9.116;2023-03-23T11:59:12;11.70;99.90
33328;DHT22;19692;52.998;9.116;2023-03-23T12:02:07;11.60;99.90
33328;DHT22;19692;52.998;9.116;2023-03-23T12:05:07;11.70;99.90
33328;DHT22;19692;52.998;9.116;2023-03-23T12:08:03;11.90;99.90
33328;DHT22;19692;52.998;9.116;2023-03-23T12:19:16;12.20;99.90
33328;DHT22;19692;52.998;9.116;2023-03-23T12:24:55;13.40;99.90
33328;DHT22;19692;52.998;9.116;2023-03-23T12:29:58;13.60;99.90
33328;DHT22;19692;52.998;9.116;2023-03-23T12:38:36;14.40;99.90
33328;DHT22;19692;52.998;9.116;2023-03-23T12:41:20;14.30;99.90
33328;DHT22;19692;52.998;9.116;2023-03-23T12:44:02;14.00;99.90
33328;DHT22;19692;52.998;9.116;2023-03-23T12:49:23;13.70;99.90
33328;DHT22;19692;52.998;9.116;2023-03-23T12:52:04;13.40;99.90
33328;DHT22;19692;52.998;9.116;2023-03-23T12:58:01;13.50;99.90
33328;DHT22;19692;52.998;9.116;2023-03-23T13:00:52;13.50;99.90
33328;DHT22;19692;52.998;9.116;2023-03-23T13:03:38;13.40;99.90
33328;DHT22;19692;52.998;9.116;2023-03-23T13:06:12;13.40;99.90
33328;DHT22;19692;52.998;9.116;2023-03-23T13:08:54;13.50;99.90
33328;DHT22;19692;52.998;9.116;2023-03-23T13:11:41;13.70;99.90
33328;DHT22;19692;52.998;9.116;2023-03-23T13:22:39;13.70;99.90
33328;DHT22;19692;52.998;9.116;2023-03-23T13:25:15;13.60;99.90
33328;DHT22;19692;52.998;9.116;2023-03-23T13:27:44;13.60;99.90
33328;DHT22;19692;52.998;9.116;2023-03-23T13:30:22;13.90;99.90
33328;DHT22;19692;52.998;9.116;2023-03-23T13:32:48;14.30;99.90
33328;DHT22;19692;52.998;9.116;2023-03-23T13:35:17;14.50;99.90
33328;DHT22;19692;52.998;9.116;2023-03-23T13:37:48;14.70;99.90
33328;DHT22;19692;52.998;9.116;2023-03-23T13:40:26;14.70;99.90
33328;DHT22;19692;52.998;9.116;2023-03-23T13:42:57;14.80;99.90
33328;DHT22;19692;52.998;9.116;2023-03-23T13:45:43;15.10;99.90
33328;DHT22;19692;52.998;9.116;2023-03-23T13:50:49;14.90;99.90
33328;DHT22;19692;52.998;9.116;2023-03-23T13:53:30;15.00;99.90
33328;DHT22;19692;52.998;9.116;2023-03-23T13:56:18;14.90;99.90
33328;DHT22;19692;52.998;9.116;2023-03-23T14:01:53;14.30;99.90
33328;DHT22;19692;52.998;9.116;2023-03-23T14:04:21;14.30;99.90
33328;DHT22;19692;52.998;9.116;2023-03-23T14:06:49;14.20;99.90
33328;DHT22;19692;52.998;9.116;2023-03-23T14:10:04;14.10;99.90
33328;DHT22;19692;52.998;9.116;2023-03-23T14:12:19;14.00;99.90
33328;DHT22;19692;52.998;9.116;2023-03-23T14:14:55;14.00;99.90
33328;DHT22;19692;52.998;9.116;2023-03-23T14:17:28;14.40;99.90
33328;DHT22;19692;52.998;9.116;2023-03-23T14:19:57;14.90;99.90
33328;DHT22;19692;52.998;9.116;2023-03-23T14:22:24;15.40;99.90
33328;DHT22;19692;52.998;9.116;2023-03-23T14:24:59;15.40;99.90
33328;DHT22;19692;52.998;9.116;2023-03-23T14:27:26;15.30;99.90
33328;DHT22;19692;52.998;9.116;2023-03-23T14:30:08;15.20;99.90
33328;DHT22;19692;52.998;9.116;2023-03-23T14:32:39;15.10;99.90
33328;DHT22;19692;52.998;9.116;2023-03-23T14:35:09;15.30;99.90
33328;DHT22;19692;52.998;9.116;2023-03-23T14:37:43;15.20;99.90
33328;DHT22;19692;52.998;9.116;2023-03-23T14:40:15;15.00;99.90
33328;DHT22;19692;52.998;9.116;2023-03-23T14:42:42;15.00;99.90
33328;DHT22;19692;52.998;9.116;2023-03-23T14:45:12;15.10;99.90
33328;DHT22;19692;52.998;9.116;2023-03-23T14:47:53;15.40;99.90
33328;DHT22;19692;52.998;9.116;2023-03-23T14:50:28;15.80;99.90
33328;DHT22;19692;52.998;9.116;2023-03-23T14:53:33;16.00;99.90
33328;DHT22;19692;52.998;9.116;2023-03-23T14:56:09;15.70;99.90
33328;DHT22;19692;52.998;9.116;2023-03-23T14:58:37;15.30;99.90
33328;DHT22;19692;52.998;9.116;2023-03-23T15:03:39;15.00;99.90
33328;DHT22;19692;52.998;9.116;2023-03-23T15:06:18;14.90;99.90
33328;DHT22;19692;52.998;9.116;2023-03-23T15:08:47;14.60;99.90
33328;DHT22;19692;52.998;9.116;2023-03-23T15:13:45;14.60;99.90
33328;DHT22;19692;52.998;9.116;2023-03-23T15:16:18;14.70;99.90
33328;DHT22;19692;52.998;9.116;2023-03-23T15:18:56;14.60;99.90
33328;DHT22;19692;52.998;9.116;2023-03-23T15:21:30;14.70;99.90
33328;DHT22;19692;52.998;9.116;2023-03-23T15:23:58;14.90;99.90
33328;DHT22;19692;52.998;9.116;2023-03-23T15:26:25;15.10;99.90
33328;DHT22;19692;52.998;9.116;2023-03-23T15:29:03;15.20;99.90
33328;DHT22;19692;52.998;9.116;2023-03-23T15:31:41;15.30;99.90
33328;DHT22;19692;52.998;9.116;2023-03-23T15:34:17;15.30;99.90
33328;DHT22;19692;52.998;9.116;2023-03-23T15:36:45;15.30;99.90
33328;DHT22;19692;52.998;9.116;2023-03-23T15:39:12;15.00;99.90
33328;DHT22;19692;52.998;9.116;2023-03-23T15:41:47;14.80;99.90
33328;DHT22;19692;52.998;9.116;2023-03-23T15:44:30;14.90;99.90
33328;DHT22;19692;52.998;9.116;2023-03-23T15:47:13;14.80;99.90
33328;DHT22;19692;52.998;9.116;2023-03-23T15:49:44;14.40;99.90
33328;DHT22;19692;52.998;9.116;2023-03-23T15:52:12;14.20;99.90
33328;DHT22;19692;52.998;9.116;2023-03-23T15:54:45;14.10;99.90
33328;DHT22;19692;52.998;9.116;2023-03-23T15:57:11;14.00;99.90
33328;DHT22;19692;52.998;9.116;2023-03-23T15:59:37;13.90;99.90
33328;DHT22;19692;52.998;9.116;2023-03-23T16:02:03;13.90;99.90
33328;DHT22;19692;52.998;9.116;2023-03-23T16:04:29;13.80;99.90
33328;DHT22;19692;52.998;9.116;2023-03-23T16:06:56;13.90;99.90
33328;DHT22;19692;52.998;9.116;2023-03-23T16:09:23;13.80;99.90
33328;DHT22;19692;52.998;9.116;2023-03-23T16:11:49;13.90;99.90
33328;DHT22;19692;52.998;9.116;2023-03-23T16:14:15;14.10;99.90
33328;DHT22;19692;52.998;9.116;2023-03-23T16:16:48;14.00;99.90
33328;DHT22;19692;52.998;9.116;2023-03-23T16:19:17;14.00;99.90
33328;DHT22;19692;52.998;9.116;2023-03-23T16:21:44;14.00;99.90
33328;DHT22;19692;52.998;9.116;2023-03-23T16:24:10;14.10;99.90
33328;DHT22;19692;52.998;9.116;2023-03-23T16:26:36;14.40;99.90
33328;DHT22;19692;52.998;9.116;2023-03-23T16:29:13;14.40;99.90
33328;DHT22;19692;52.998;9.116;2023-03-23T16:31:40;14.30;99.90
33328;DHT22;19692;52.998;9.116;2023-03-23T16:34:06;14.20;99.90
33328;DHT22;19692;52.998;9.116;2023-03-23T16:36:33;14.10;99.90
33328;DHT22;19692;52.998;9.116;2023-03-23T16:38:59;14.00;99.90
33328;DHT22;19692;52.998;9.116;2023-03-23T16:41:25;13.80;99.90
33328;DHT22;19692;52.998;9.116;2023-03-23T16:43:50;13.60;99.90
33328;DHT22;19692;52.998;9.116;2023-03-23T16:46:16;13.40;99.90
33328;DHT22;19692;52.998;9.116;2023-03-23T16:48:42;13.20;99.90
33328;DHT22;19692;52.998;9.116;2023-03-23T16:51:08;13.10;99.90
33328;DHT22;19692;52.998;9.116;2023-03-23T16:53:34;13.10;99.90
33328;DHT22;19692;52.998;9.116;2023-03-23T16:56:01;13.20;99.90
33328;DHT22;19692;52.998;9.116;2023-03-23T16:58:27;13.40;99.90
33328;DHT22;19692;52.998;9.116;2023-03-23T17:00:53;13.60;99.90
33328;DHT22;19692;52.998;9.116;2023-03-23T17:03:20;13.60;99.90
33328;DHT22;19692;52.998;9.116;2023-03-23T17:05:48;13.50;99.90
33328;DHT22;19692;52.998;9.116;2023-03-23T17:08:15;13.40;99.90
33328;DHT22;19692;52.998;9.116;2023-03-23T17:10:42;13.20;99.90
33328;DHT22;19692;52.998;9.116;2023-03-23T17:13:08;12.90;99.90
33328;DHT22;19692;52.998;9.116;2023-03-23T17:15:36;12.70;99.90
33328;DHT22;19692;52.998;9.116;2023-03-23T17:18:04;12.40;99.90
33328;DHT22;19692;52.998;9.116;2023-03-23T17:20:30;12.40;99.90